createdAt,value
2017-11-24T00:01:20.603Z,6.80
2017-11-24T00:03:48.915Z,17.93
2017-11-24T00:06:18.698Z,15.83
2017-11-24T00:08:46.961Z,11.43
2017-11-24T00:11:15.205Z,15.93
2017-11-24T00:13:44.212Z,11.10
2017-11-24T00:16:13.220Z,27.20
2017-11-24T00:18:41.475Z,14.50
2017-11-24T00:21:09.750Z,16.60
2017-11-24T00:23:38.746Z,25.03
2017-11-24T00:26:07.007Z,38.87
2017-11-24T00:28:35.265Z,15.40
2017-11-24T00:31:03.480Z,17.40
2017-11-24T00:33:32.548Z,14.07
2017-11-24T00:38:45.958Z,14.53
2017-11-24T00:41:14.276Z,17.10
2017-11-24T00:43:42.520Z,12.20
2017-11-24T00:46:10.803Z,20.30
2017-11-24T00:48:39.051Z,23.07
2017-11-24T00:51:07.313Z,47.30
2017-11-24T00:53:36.354Z,58.60
2017-11-24T00:56:04.671Z,67.23
2017-11-24T00:58:32.911Z,57.10
2017-11-24T01:01:02.341Z,83.57
2017-11-24T01:03:30.672Z,83.87
2017-11-24T01:05:58.933Z,57.97
2017-11-24T01:08:27.174Z,43.63
2017-11-24T01:10:55.446Z,46.47
2017-11-24T01:13:23.706Z,34.00
2017-11-24T01:15:51.956Z,29.83
2017-11-24T01:18:20.278Z,32.60
2017-11-24T01:20:49.352Z,26.43
2017-11-24T01:23:17.608Z,36.33
2017-11-24T01:25:45.878Z,27.37
2017-11-24T01:28:14.872Z,32.70
2017-11-24T01:30:43.444Z,54.07
2017-11-24T01:33:11.717Z,29.33
2017-11-24T01:35:40.795Z,34.47
2017-11-24T01:38:09.916Z,28.00
2017-11-24T01:40:38.573Z,16.43
2017-11-24T01:43:07.587Z,28.40
2017-11-24T01:45:36.609Z,24.43
2017-11-24T01:48:04.940Z,15.93
2017-11-24T01:50:33.183Z,11.20
2017-11-24T01:53:01.471Z,11.33
2017-11-24T01:55:29.753Z,25.60
2017-11-24T01:57:58.337Z,28.30
2017-11-24T02:00:26.598Z,17.50
2017-11-24T02:02:55.301Z,11.63
2017-11-24T02:05:23.563Z,19.80
2017-11-24T02:07:51.848Z,24.97
2017-11-24T02:10:20.092Z,14.70
2017-11-24T02:12:48.353Z,14.20
2017-11-24T02:15:17.553Z,18.73
2017-11-24T02:17:46.545Z,19.20
2017-11-24T02:20:15.568Z,13.57
2017-11-24T02:22:43.826Z,12.10
2017-11-24T02:25:12.173Z,11.37
2017-11-24T02:27:40.434Z,13.70
2017-11-24T02:30:08.675Z,25.27
2017-11-24T02:32:37.004Z,21.73
2017-11-24T02:35:05.242Z,19.53
2017-11-24T02:37:33.567Z,10.63
2017-11-24T02:40:02.629Z,22.23
2017-11-24T02:42:30.880Z,20.13
2017-11-24T02:44:59.164Z,16.40
2017-11-24T02:47:27.399Z,20.73
2017-11-24T02:49:55.694Z,34.23
2017-11-24T02:52:23.956Z,30.83
2017-11-24T02:54:53.038Z,14.20
2017-11-24T02:57:21.302Z,20.80
2017-11-24T02:59:49.576Z,24.47
2017-11-24T03:02:17.833Z,13.60
2017-11-24T03:04:46.077Z,18.33
2017-11-24T03:07:14.357Z,14.43
2017-11-24T03:09:43.349Z,13.30
2017-11-24T03:12:11.638Z,16.10
2017-11-24T03:14:39.879Z,20.20
2017-11-24T03:17:08.907Z,12.77
2017-11-24T03:19:37.930Z,15.73
2017-11-24T03:22:06.176Z,11.03
2017-11-24T03:24:34.446Z,9.73
2017-11-24T03:27:03.436Z,23.63
2017-11-24T03:29:32.454Z,28.93
2017-11-24T03:32:00.719Z,14.50
2017-11-24T03:34:28.986Z,12.47
2017-11-24T03:36:57.998Z,17.13
2017-11-24T03:39:26.253Z,11.03
2017-11-24T03:41:55.296Z,19.37
2017-11-24T03:44:23.563Z,14.10
2017-11-24T03:46:51.817Z,9.83
2017-11-24T03:49:20.076Z,10.83
2017-11-24T03:51:49.075Z,19.60
2017-11-24T03:54:17.331Z,30.40
2017-11-24T03:56:45.727Z,13.27
2017-11-24T03:59:13.945Z,23.63
2017-11-24T04:01:42.582Z,13.73
2017-11-24T04:04:10.837Z,24.30
2017-11-24T04:06:39.082Z,12.10
2017-11-24T04:09:08.155Z,7.70
2017-11-24T04:11:36.519Z,16.37
2017-11-24T04:14:04.762Z,16.70
2017-11-24T04:16:33.033Z,15.37
2017-11-24T04:19:01.269Z,15.93
2017-11-24T04:21:29.523Z,13.50
2017-11-24T04:23:58.528Z,10.30
2017-11-24T04:26:26.807Z,16.67
2017-11-24T04:28:55.074Z,12.93
2017-11-24T04:31:24.112Z,18.50
2017-11-24T04:33:52.377Z,19.10
2017-11-24T04:36:20.634Z,15.53
2017-11-24T04:38:49.667Z,14.83
2017-11-24T04:41:17.946Z,26.63
2017-11-24T04:43:46.199Z,31.97
2017-11-24T04:46:14.494Z,44.93
2017-11-24T04:48:42.731Z,20.30
2017-11-24T04:51:11.398Z,36.23
2017-11-24T04:53:39.640Z,20.80
2017-11-24T04:56:07.960Z,24.77
2017-11-24T04:58:36.216Z,31.23
2017-11-24T05:01:04.613Z,22.10
2017-11-24T05:03:32.852Z,19.03
2017-11-24T05:06:01.111Z,26.07
2017-11-24T05:08:29.397Z,23.20
2017-11-24T05:10:57.659Z,19.80
2017-11-24T05:13:25.906Z,20.00
2017-11-24T05:15:55.573Z,15.90
2017-11-24T05:18:23.836Z,15.63
2017-11-24T05:20:52.092Z,16.67
2017-11-24T05:23:21.183Z,14.97
2017-11-24T05:25:50.251Z,11.80
2017-11-24T05:28:18.484Z,11.17
2017-11-24T05:30:47.372Z,6.63
2017-11-24T05:33:15.642Z,11.73
2017-11-24T05:35:44.659Z,12.33
2017-11-24T05:38:12.913Z,13.53
2017-11-24T05:40:41.153Z,6.00
2017-11-24T05:43:09.449Z,7.03
2017-11-24T05:45:37.688Z,8.23
2017-11-24T05:48:05.946Z,9.47
2017-11-24T05:50:34.188Z,7.47
2017-11-24T05:53:02.481Z,9.03
2017-11-24T05:55:30.726Z,21.63
2017-11-24T05:57:59.907Z,11.00
2017-11-24T06:00:28.830Z,8.73
2017-11-24T06:02:57.326Z,13.93
2017-11-24T06:05:26.303Z,24.83
2017-11-24T06:07:54.616Z,15.27
2017-11-24T06:10:22.920Z,11.83
2017-11-24T06:12:51.206Z,12.40
2017-11-24T06:15:19.528Z,15.60
2017-11-24T06:17:48.594Z,11.60
2017-11-24T06:20:16.855Z,16.63
2017-11-24T06:22:45.113Z,11.20
2017-11-24T06:25:13.380Z,12.20
2017-11-24T06:27:41.668Z,13.33
2017-11-24T06:30:09.950Z,15.93
2017-11-24T06:32:38.280Z,17.10
2017-11-24T06:35:07.304Z,14.50
2017-11-24T06:37:35.567Z,11.17
2017-11-24T06:40:03.799Z,12.73
2017-11-24T06:42:32.045Z,11.40
2017-11-24T06:45:00.283Z,9.23
2017-11-24T06:47:29.329Z,5.80
2017-11-24T06:49:57.584Z,6.00
2017-11-24T06:52:25.872Z,7.37
2017-11-24T06:54:54.074Z,4.83
2017-11-24T06:57:22.376Z,6.13
2017-11-24T06:59:51.409Z,3.40
2017-11-24T07:02:19.695Z,9.80
2017-11-24T07:04:47.942Z,7.97
2017-11-24T07:07:16.975Z,8.60
2017-11-24T07:09:46.049Z,11.37
2017-11-24T07:12:14.303Z,9.87
2017-11-24T07:14:43.333Z,11.20
2017-11-24T07:17:11.564Z,13.37
2017-11-24T07:19:40.597Z,16.40
2017-11-24T07:22:08.884Z,11.73
2017-11-24T07:24:37.200Z,20.90
2017-11-24T07:27:05.427Z,21.30
2017-11-24T07:29:33.651Z,18.73
2017-11-24T07:32:01.933Z,23.83
2017-11-24T07:34:30.200Z,15.07
2017-11-24T07:36:58.440Z,20.50
2017-11-24T07:39:26.720Z,15.87
2017-11-24T07:41:54.985Z,16.90
2017-11-24T07:44:23.266Z,15.93
2017-11-24T07:46:51.508Z,17.40
2017-11-24T07:49:19.849Z,15.77
2017-11-24T07:51:48.149Z,19.70
2017-11-24T07:54:16.393Z,18.77
2017-11-24T07:56:44.663Z,16.53
2017-11-24T07:59:12.946Z,20.03
2017-11-24T08:01:41.182Z,14.23
2017-11-24T08:04:10.205Z,15.53
2017-11-24T08:06:38.449Z,15.23
2017-11-24T08:09:07.450Z,17.00
2017-11-24T08:11:36.520Z,18.80
2017-11-24T08:14:05.567Z,12.50
2017-11-24T08:16:33.828Z,14.13
2017-11-24T08:19:02.845Z,19.03
2017-11-24T08:21:31.137Z,18.97
2017-11-24T08:23:59.395Z,17.43
2017-11-24T08:26:27.643Z,20.70
2017-11-24T08:28:56.679Z,24.53
2017-11-24T08:31:24.926Z,21.10
2017-11-24T08:33:53.213Z,18.10
2017-11-24T08:36:21.453Z,17.53
2017-11-24T08:38:49.698Z,18.33
2017-11-24T08:41:18.877Z,17.57
2017-11-24T08:43:47.114Z,18.27
2017-11-24T08:46:21.941Z,20.40
2017-11-24T08:48:56.762Z,22.07
2017-11-24T08:51:25.060Z,21.77
2017-11-24T08:53:53.347Z,21.00
2017-11-24T08:56:22.367Z,21.53
2017-11-24T08:58:50.618Z,15.53
2017-11-24T09:01:19.680Z,16.97
2017-11-24T09:03:47.927Z,16.73
2017-11-24T09:06:17.808Z,17.40
2017-11-24T09:08:46.116Z,15.40
2017-11-24T09:11:14.377Z,17.03
2017-11-24T09:13:42.625Z,11.20
2017-11-24T09:16:11.659Z,11.67
2017-11-24T09:18:39.933Z,15.37
2017-11-24T09:21:08.183Z,8.17
2017-11-24T09:23:37.211Z,10.30
2017-11-24T09:26:05.451Z,16.17
2017-11-24T09:28:34.484Z,17.77
2017-11-24T09:31:02.876Z,18.33
2017-11-24T09:33:31.145Z,9.03
2017-11-24T09:35:59.373Z,9.47
2017-11-24T09:38:28.397Z,13.90
2017-11-24T09:40:56.691Z,9.70
2017-11-24T09:43:25.000Z,10.93
2017-11-24T09:45:54.090Z,13.30
2017-11-24T09:48:23.087Z,12.90
2017-11-24T09:50:51.338Z,17.47
2017-11-24T09:53:19.619Z,10.77
2017-11-24T09:55:47.845Z,13.50
2017-11-24T09:58:16.869Z,12.23
2017-11-24T10:00:45.137Z,15.30
2017-11-24T10:03:13.418Z,13.43
2017-11-24T10:05:42.443Z,21.20
2017-11-24T10:08:10.677Z,14.40
2017-11-24T10:10:39.708Z,16.43
2017-11-24T10:13:07.932Z,15.73
2017-11-24T10:15:36.203Z,20.47
2017-11-24T10:18:04.433Z,20.87
2017-11-24T10:23:40.580Z,17.00
2017-11-24T10:26:09.594Z,19.43
2017-11-24T10:28:38.568Z,15.40
2017-11-24T10:31:07.589Z,17.00
2017-11-24T10:33:35.876Z,10.43
2017-11-24T10:36:04.159Z,13.57
2017-11-24T10:38:32.417Z,11.13
2017-11-24T10:41:01.404Z,13.13
2017-11-24T10:43:30.444Z,13.00
2017-11-24T10:45:58.746Z,9.30
2017-11-24T10:48:27.018Z,16.23
2017-11-24T10:50:55.228Z,16.73
2017-11-24T10:53:23.483Z,14.13
2017-11-24T10:55:51.758Z,11.20
2017-11-24T10:58:20.242Z,17.47
2017-11-24T11:00:48.477Z,18.03
2017-11-24T11:03:16.765Z,10.00
2017-11-24T11:05:45.046Z,13.47
2017-11-24T11:08:13.286Z,20.70
2017-11-24T11:10:41.546Z,13.70
2017-11-24T11:13:10.580Z,17.73
2017-11-24T11:15:38.835Z,22.40
2017-11-24T11:18:07.091Z,13.80
2017-11-24T11:20:36.096Z,23.77
2017-11-24T11:23:05.115Z,16.53
2017-11-24T11:25:33.346Z,16.80
2017-11-24T11:28:02.384Z,8.83
2017-11-24T11:30:30.706Z,11.73
2017-11-24T11:32:58.959Z,16.63
2017-11-24T11:35:27.207Z,12.63
2017-11-24T11:37:55.475Z,13.30
2017-11-24T11:40:23.749Z,10.73
2017-11-24T11:42:52.009Z,18.20
2017-11-24T11:45:20.353Z,17.50
2017-11-24T11:47:48.678Z,23.97
2017-11-24T11:50:17.697Z,22.10
2017-11-24T11:52:45.948Z,24.87
2017-11-24T11:55:15.015Z,17.00
2017-11-24T11:57:43.236Z,19.10
2017-11-24T12:00:11.492Z,22.73
2017-11-24T12:02:40.519Z,12.03
2017-11-24T12:05:08.838Z,21.60
2017-11-24T12:07:37.130Z,23.37
2017-11-24T12:10:05.390Z,14.83
2017-11-24T12:12:33.679Z,18.70
2017-11-24T12:15:01.951Z,20.77
2017-11-24T12:17:30.195Z,13.13
2017-11-24T12:19:58.457Z,14.50
2017-11-24T12:22:26.701Z,18.03
2017-11-24T12:24:55.728Z,16.20
2017-11-24T12:27:24.019Z,25.23
2017-11-24T12:29:52.291Z,16.73
2017-11-24T12:32:20.575Z,19.17
2017-11-24T12:34:48.834Z,25.40
2017-11-24T12:37:17.187Z,25.23
2017-11-24T12:39:46.190Z,31.03
2017-11-24T12:42:14.541Z,23.63
2017-11-24T12:44:42.929Z,22.90
2017-11-24T12:47:11.159Z,29.77
2017-11-24T12:49:39.400Z,37.13
2017-11-24T12:52:08.425Z,26.70
2017-11-24T12:54:36.767Z,25.13
2017-11-24T12:57:05.035Z,20.30
2017-11-24T12:59:33.271Z,28.53
2017-11-24T13:02:01.541Z,20.80
2017-11-24T13:04:30.274Z,27.40
2017-11-24T13:06:58.505Z,22.30
2017-11-24T13:09:26.799Z,30.80
2017-11-24T13:11:55.079Z,15.20
2017-11-24T13:14:23.348Z,33.43
2017-11-24T13:16:51.725Z,16.70
2017-11-24T13:19:20.911Z,17.40
2017-11-24T13:21:49.160Z,22.47
2017-11-24T13:24:18.177Z,15.50
2017-11-24T13:26:46.453Z,22.70
2017-11-24T13:29:14.746Z,16.90
2017-11-24T13:31:43.014Z,22.67
2017-11-24T13:34:11.322Z,27.20
2017-11-24T13:36:39.633Z,27.07
2017-11-24T13:39:08.006Z,20.10
2017-11-24T13:41:37.477Z,28.57
2017-11-24T13:44:05.757Z,28.73
2017-11-24T13:46:34.080Z,29.03
2017-11-24T13:49:03.182Z,24.87
2017-11-24T13:51:33.585Z,28.00
2017-11-24T13:54:01.906Z,39.93
2017-11-24T13:56:30.918Z,25.00
2017-11-24T13:58:59.177Z,26.57
2017-11-24T14:01:27.418Z,31.13
2017-11-24T14:03:55.696Z,20.60
2017-11-24T14:06:23.972Z,19.17
2017-11-24T14:08:52.255Z,23.43
2017-11-24T14:11:20.531Z,19.43
2017-11-24T14:13:49.593Z,26.60
2017-11-24T14:16:21.479Z,28.23
2017-11-24T14:18:50.169Z,23.30
2017-11-24T14:21:18.441Z,22.20
2017-11-24T14:23:46.706Z,18.03
2017-11-24T14:26:14.954Z,25.23
2017-11-24T14:28:43.263Z,19.20
2017-11-24T14:31:11.534Z,23.73
2017-11-24T14:33:39.840Z,26.00
2017-11-24T14:36:08.892Z,30.93
2017-11-24T14:38:37.129Z,38.00
2017-11-24T14:41:06.148Z,28.97
2017-11-24T14:43:34.415Z,28.03
2017-11-24T14:46:02.721Z,26.70
2017-11-24T14:48:31.023Z,37.00
2017-11-24T14:50:59.288Z,20.43
2017-11-24T14:53:28.118Z,23.63
2017-11-24T14:55:57.161Z,27.27
2017-11-24T14:58:25.452Z,17.63
2017-11-24T15:00:53.713Z,21.80
2017-11-24T15:03:22.243Z,23.80
2017-11-24T15:05:50.632Z,17.93
2017-11-24T15:08:19.005Z,18.57
2017-11-24T15:10:47.508Z,18.60
2017-11-24T15:13:16.555Z,39.37
2017-11-24T15:15:45.186Z,24.40
2017-11-24T15:18:13.472Z,23.30
2017-11-24T15:20:41.824Z,29.47
2017-11-24T15:23:10.169Z,19.70
2017-11-24T15:25:38.520Z,21.73
2017-11-24T15:28:07.165Z,20.83
2017-11-24T15:30:35.464Z,25.10
2017-11-24T15:33:04.774Z,25.33
2017-11-24T15:35:33.649Z,21.70
2017-11-24T15:38:01.945Z,22.50
2017-11-24T15:40:31.300Z,24.13
2017-11-24T15:43:00.471Z,16.20
2017-11-24T15:45:29.094Z,19.47
2017-11-24T15:47:59.072Z,14.90
2017-11-24T15:50:27.495Z,25.73
2017-11-24T15:52:55.884Z,21.90
2017-11-24T15:55:24.360Z,22.10
2017-11-24T15:57:52.640Z,23.33
2017-11-24T16:00:21.805Z,22.90
2017-11-24T16:02:51.044Z,21.27
2017-11-24T16:05:19.373Z,31.90
2017-11-24T16:07:59.058Z,21.40
2017-11-24T16:10:28.159Z,21.00
2017-11-24T16:12:57.213Z,25.10
2017-11-24T16:15:25.531Z,20.57
2017-11-24T16:17:53.781Z,17.43
2017-11-24T16:20:22.050Z,14.13
2017-11-24T16:22:50.408Z,26.10
2017-11-24T16:25:18.714Z,16.93
2017-11-24T16:27:47.018Z,29.30
2017-11-24T16:30:15.915Z,21.27
2017-11-24T16:32:45.727Z,22.43
2017-11-24T16:35:14.102Z,21.20
2017-11-24T16:37:42.459Z,21.00
2017-11-24T16:40:10.830Z,23.07
2017-11-24T16:42:39.244Z,20.10
2017-11-24T16:45:08.002Z,22.90
2017-11-24T16:47:36.339Z,26.70
2017-11-24T16:50:04.808Z,21.17
2017-11-24T16:52:33.107Z,21.17
2017-11-24T16:55:02.357Z,25.10
2017-11-24T16:57:31.051Z,20.10
2017-11-24T16:59:59.348Z,26.73
2017-11-24T17:02:30.173Z,20.90
2017-11-24T17:04:58.457Z,41.13
2017-11-24T17:07:27.857Z,39.57
2017-11-24T17:09:57.223Z,37.33
2017-11-24T17:12:26.276Z,38.43
2017-11-24T17:14:55.485Z,36.90
2017-11-24T17:17:25.704Z,28.93
2017-11-24T17:19:55.518Z,26.00
2017-11-24T17:22:23.872Z,33.70
2017-11-24T17:24:52.201Z,33.93
2017-11-24T17:27:20.617Z,42.73
2017-11-24T17:29:48.969Z,42.20
2017-11-24T17:32:17.253Z,34.20
2017-11-24T17:34:45.514Z,31.50
2017-11-24T17:37:13.868Z,35.63
2017-11-24T17:39:42.940Z,36.60
2017-11-24T17:42:12.018Z,33.77
2017-11-24T17:44:40.337Z,31.30
2017-11-24T17:47:08.646Z,38.13
2017-11-24T17:49:37.813Z,32.50
2017-11-24T17:52:06.187Z,44.83
2017-11-24T17:54:34.472Z,38.70
2017-11-24T17:57:02.749Z,34.87
2017-11-24T17:59:31.830Z,35.27
2017-11-24T18:02:00.080Z,41.60
2017-11-24T18:04:29.267Z,33.30
2017-11-24T18:06:57.507Z,37.83
2017-11-24T18:09:25.865Z,32.37
2017-11-24T18:11:54.149Z,29.33
2017-11-24T18:14:23.228Z,47.90
2017-11-24T18:16:51.505Z,37.43
2017-11-24T18:19:19.789Z,32.80
2017-11-24T18:21:49.088Z,36.67
2017-11-24T18:24:18.211Z,35.03
2017-11-24T18:26:46.526Z,37.23
2017-11-24T18:29:15.140Z,34.47
2017-11-24T18:31:43.405Z,47.27
2017-11-24T18:34:11.841Z,32.63
2017-11-24T18:36:40.128Z,32.93
2017-11-24T18:39:09.053Z,36.13
2017-11-24T18:41:37.350Z,32.07
2017-11-24T18:44:06.665Z,30.73
2017-11-24T18:46:35.723Z,42.00
2017-11-24T18:49:03.998Z,35.67
2017-11-24T18:51:32.284Z,33.23
2017-11-24T18:54:00.546Z,51.57
2017-11-24T18:56:28.836Z,34.03
2017-11-24T18:58:57.068Z,36.17
2017-11-24T19:01:25.412Z,39.10
2017-11-24T19:03:55.239Z,38.33
2017-11-24T19:06:23.515Z,43.27
2017-11-24T19:08:52.756Z,30.43
2017-11-24T19:11:21.084Z,38.00
2017-11-24T19:13:49.466Z,24.57
2017-11-24T19:16:17.710Z,45.60
2017-11-24T19:18:45.975Z,38.77
2017-11-24T19:21:15.057Z,38.87
2017-11-24T19:23:43.352Z,35.23
2017-11-24T19:26:11.642Z,36.43
2017-11-24T19:28:39.967Z,34.10
2017-11-24T19:31:09.120Z,43.33
2017-11-24T19:33:39.035Z,42.60
2017-11-24T19:36:07.432Z,40.00
2017-11-24T19:38:35.802Z,50.13
2017-11-24T19:41:04.128Z,37.20
2017-11-24T19:43:34.159Z,42.33
2017-11-24T19:46:02.488Z,36.13
2017-11-24T19:48:30.809Z,41.30
2017-11-24T19:50:59.849Z,42.23
2017-11-24T19:53:32.447Z,35.80
2017-11-24T19:56:01.663Z,34.80
2017-11-24T19:58:31.010Z,34.60
2017-11-24T20:00:59.272Z,34.97
2017-11-24T20:03:27.910Z,31.63
2017-11-24T20:05:56.262Z,47.33
2017-11-24T20:08:24.530Z,39.80
2017-11-24T20:10:52.946Z,34.50
2017-11-24T20:13:23.190Z,41.83
2017-11-24T20:15:52.853Z,46.57
2017-11-24T20:18:21.407Z,39.07
2017-11-24T20:20:50.509Z,50.60
2017-11-24T20:23:18.881Z,49.93
2017-11-24T20:25:47.255Z,46.37
2017-11-24T20:28:16.489Z,43.30
2017-11-24T20:30:44.885Z,55.90
2017-11-24T20:33:13.194Z,51.57
2017-11-24T20:35:44.525Z,52.80
2017-11-24T20:38:12.811Z,41.60
2017-11-24T20:40:53.960Z,61.23
2017-11-24T20:43:22.735Z,57.17
2017-11-24T20:45:52.423Z,56.17
2017-11-24T20:48:20.795Z,62.70
2017-11-24T20:50:51.417Z,84.73
2017-11-24T20:53:20.447Z,80.23
2017-11-24T20:55:49.554Z,67.67
2017-11-24T20:58:17.935Z,82.03
2017-11-24T21:00:46.250Z,63.63
2017-11-24T21:03:15.514Z,59.53
2017-11-24T21:05:43.935Z,65.10
2017-11-24T21:08:12.348Z,60.60
2017-11-24T21:10:41.303Z,70.77
2017-11-24T21:13:11.205Z,66.60
2017-11-24T21:15:39.515Z,58.57
2017-11-24T21:18:08.807Z,67.73
2017-11-24T21:20:38.877Z,57.13
2017-11-24T21:23:07.257Z,59.93
2017-11-24T21:25:35.610Z,56.57
2017-11-24T21:28:04.981Z,54.90
2017-11-24T21:30:33.253Z,54.03
2017-11-24T21:33:01.602Z,54.93
2017-11-24T21:35:30.632Z,53.50
2017-11-24T21:37:58.914Z,57.77
2017-11-24T21:40:27.456Z,53.37
2017-11-24T21:42:55.892Z,54.77
2017-11-24T21:45:24.291Z,75.83
2017-11-24T21:47:53.379Z,55.37
2017-11-24T21:50:22.559Z,57.87
2017-11-24T21:52:50.824Z,57.50
2017-11-24T21:55:19.527Z,49.27
2017-11-24T21:57:47.933Z,54.53
2017-11-24T22:00:16.960Z,51.73
2017-11-24T22:02:45.242Z,48.00
2017-11-24T22:05:13.778Z,53.00
2017-11-24T22:07:42.193Z,46.73
2017-11-24T22:10:10.718Z,54.33
2017-11-24T22:12:40.809Z,41.50
2017-11-24T22:15:09.040Z,52.83
2017-11-24T22:17:38.981Z,47.60
2017-11-24T22:20:07.284Z,57.77
2017-11-24T22:22:35.556Z,53.53
2017-11-24T22:25:03.920Z,50.17
2017-11-24T22:27:32.206Z,46.90
2017-11-24T22:30:00.517Z,50.30
2017-11-24T22:32:28.789Z,51.43
2017-11-24T22:34:57.055Z,47.83
2017-11-24T22:37:25.490Z,55.27
2017-11-24T22:39:54.551Z,44.53
2017-11-24T22:42:22.836Z,51.70
2017-11-24T22:44:51.081Z,47.63
2017-11-24T22:47:19.389Z,55.17
2017-11-24T22:49:47.762Z,62.23
2017-11-24T22:52:16.086Z,55.53
2017-11-24T22:54:45.004Z,56.20
2017-11-24T22:57:13.305Z,49.80
2017-11-24T22:59:41.653Z,62.20
2017-11-24T23:02:09.881Z,54.93
2017-11-24T23:04:38.249Z,58.77
2017-11-24T23:07:06.506Z,49.20
2017-11-24T23:09:34.814Z,67.00
2017-11-24T23:12:03.324Z,58.70
2017-11-24T23:14:31.617Z,52.90
2017-11-24T23:17:00.717Z,64.67
2017-11-24T23:19:29.869Z,50.80
2017-11-24T23:21:58.114Z,51.70
2017-11-24T23:24:28.141Z,53.93
2017-11-24T23:26:56.394Z,50.80
2017-11-24T23:29:24.750Z,57.03
2017-11-24T23:31:53.007Z,56.23
2017-11-24T23:34:22.245Z,60.13
2017-11-24T23:36:50.567Z,53.33
2017-11-24T23:39:20.498Z,61.43
2017-11-24T23:41:48.816Z,53.63
2017-11-24T23:44:17.119Z,54.10
2017-11-24T23:46:46.428Z,54.87
2017-11-24T23:49:14.669Z,52.03
2017-11-24T23:51:43.727Z,51.57
2017-11-24T23:54:12.715Z,49.77
2017-11-24T23:56:40.932Z,58.87
2017-11-24T23:59:09.194Z,52.70
